• Join FlightAware (Why Join?)
  • Login
  • US Flag 
10:33PM EDT


 

Airport Tracker/Info


-or-


 

Live Flight TrackerFlight Track Log ✈ RPA3392 ✈ 24-May-2013 ✈ KDCA - KALB

Flight Track Log - Related Links

Times and Time Zones

All times are in EDT time to prevent confusion due to time zone crossing. See the RPA3392 flight status page for this flight to view local times or setup timezone preferences in your user account.

Time Position Orientation Groundspeed Altitude Reporting Facility
EDT Latitude Longitude Course Direction KTS MPH feet Rate Location/Type
10:10PM 38.8833 -77.0667 83° East 151 174 2,200  Level Potomac TRACON
10:12PM 39.0214 -76.5524 67° East  Level FlightAware Approximate
10:12PM 38.9533 -77.1506 317° Northwest 211 243 5,700  Level Washington Center
10:13PM 39.0678 -76.4307 61° Northeast  Level FlightAware Approximate
10:13PM 39.0111 -77.1864 334° Northwest 222 255 8,000  Level Washington Center
10:14PM 39.1167 -76.3113 90° East  Level FlightAware Approximate
10:14PM 39.0436 -77.0989 64° Northeast 166 191 10,500  Level Washington Center
10:15PM 39.1524 -76.1926 83° East  Level FlightAware Approximate
10:15PM 39.0553 -76.9842 83° East 222 255 12,400  Level Washington Center
10:16PM 39.0714 -76.8669 80° East 284 327 14,300 1,740 Climbing Washington Center
10:17PM 39.0850 -76.7442 82° East 320 368 15,900 1,620 Climbing Washington Center
10:18PM 39.1008 -76.6161 81° East 345 397 17,600 1,560 Climbing Washington Center
10:19PM 39.1164 -76.4850 81° East 358 412 19,000 1,440 Climbing Washington Center
10:20PM 39.1319 -76.3489 82° East 374 430 20,500 1,320 Climbing Washington Center
10:21PM 39.1619 -76.2153 74° East 379 436 21,700 1,140 Climbing Washington Center
10:22PM 39.2228 -76.1086 54° Northeast 379 436 22,900 780 Climbing Washington Center
10:23PM 39.2858 -75.9939 55° Northeast 390 449 23,400 660 Climbing Washington Center
10:24PM 39.3486 -75.8681 57° Northeast 401 461 24,300 780 Climbing Washington Center
10:25PM 39.4133 -75.7419 56° Northeast 411 473 25,000 300 Climbing Washington Center
10:26PM 39.4822 -75.6103 56° Northeast 426 490 25,000  Level Washington Center
10:27PM 39.5511 -75.4758 56° Northeast 437 503 25,000  Level Washington Center
10:28PM 39.6194 -75.3411 57° Northeast 437 503 25,000  Level Washington Center
10:29PM 39.7006 -75.2167 50° Northeast 442 509 25,000  Level Washington Center
10:29PM 39.7425 -75.1525 50° Northeast 453 521 25,000  Level New York Center
10:30PM 39.8281 -75.0308 47° Northeast 462 532 25,000  Level New York Center
10:31PM 39.9158 -74.9092 47° Northeast 471 542 25,000  Level New York Center
10:32PM 40.0058 -74.7817 47° Northeast 462 532 25,000  Level New York Center
10:33PM 40.0933 -74.6592 47° Northeast 462 532 25,000  Level New York Center
10:34PM 40.1808 -74.5336 48° Northeast 462 532 25,000  Level New York Center
10:35PM 40.2781 -74.4164 43° Northeast 462 532 25,000 -300 Level New York Center
10:36PM 40.3817 -74.3047 39° Northeast 462 532 24,400 -360 Descending New York Center
10:38PM 40.5836 -74.0825 40° Northeast 476 548 24,000 -180 Descending Boston Center
10:39PM 40.7042 -73.9594 38° Northeast 466 536 24,000  Level Boston Center
10:40PM 40.8056 -73.8494 39° Northeast 466 536 24,000  Level Boston Center
10:41PM 40.9008 -73.7306 43° Northeast 466 536 24,000 -180 Level Boston Center
10:42PM 40.9958 -73.6117 43° Northeast 466 536 23,700 -420 Descending Boston Center
10:43PM 41.0825 -73.5086 42° Northeast 461 531 23,200 -600 Descending Boston Center
10:44PM 41.1772 -73.3942 42° Northeast 455 524 22,500 -660 Descending Boston Center
10:45PM 41.2678 -73.2631 47° Northeast 442 509 21,900 -600 Descending Boston Center
10:46PM 41.3681 -73.2172 19° North 407 468 21,300 -600 Descending Boston Center
10:47PM 41.4847 -73.2547 346° North 390 449 20,700 -600 Descending Boston Center
10:48PM 41.6031 -73.3147 339° North 395 455 20,200 -1,080 Descending Boston Center
10:49PM 41.7028 -73.3550 343° North 400 460 18,600 -2,100 Descending Boston Center
10:50PM 41.8169 -73.4039 342° North 400 460 16,000 -2,460 Descending Boston Center
10:51PM 41.9042 -73.4386 343° North 371 427 13,700 -2,220 Descending Boston Center
10:52PM 41.9581 -73.4647 340° North 348 400 12,700 -1,920 Descending Boston Center
10:52PM 41.9997 -73.4819 343° North 347 399 11,800 -1,140 Descending Boston Center
10:53PM 42.0828 -73.5197 341° North 322 371 11,000 -420 Descending Boston Center
10:54PM 42.1722 -73.5186 North 315 362 11,000 -120 Level Boston Center
10:55PM 42.2511 -73.5619 338° Northwest 308 354 10,800 -840 Descending Boston Center
10:56PM 42.3358 -73.6253 331° Northwest 285 328 9,200 -1,320 Descending Boston Center
10:57PM 42.3875 -73.6656 330° Northwest 282 325 8,200 -1,620 Descending Boston Center
10:58PM 42.4453 -73.7117 330° Northwest 271 312 6,400 -1,740 Descending Boston Center
10:59PM 42.5114 -73.7639 330° Northwest 260 299 4,800 -1,260 Descending Boston Center
11:00PM 42.5528 -73.7958 330° Northwest 215 247 3,900 -960 Descending Boston Center
11:01PM 42.6047 -73.8025 355° North 156 180 2,900 -720 Descending Boston Center
11:02PM 42.6444 -73.8092 353° North 161 185 2,500 -480 Descending Boston Center